Time;durP1;ratioP1;P1;durP2;ratioP2;P2;SDS_P1;SDS_P2;PMS_P1;PMS_P2;Temp;Humidity;BMP_temperature;BMP_pressure;BME280_temperature;BME280_humidity;BME280_pressure;Samples;Min_cycle;Max_cycle;Signal;HPM_P1;HPM_P2
2024/04/15 00:02:00;;;;;;;;;;;;;;;12.66;100.00;97764.84;104397;1273;62979;-41
2024/04/15 00:04:27;;;;;;;;;;;;;;;12.64;100.00;97771.98;104337;1280;62956;-41
2024/04/15 00:06:54;;;;;;;;;;;;;;;12.64;100.00;97779.61;104376;1279;75961;-42
2024/04/15 00:09:21;;;;;;;;;;;;;;;12.62;100.00;97780.64;104272;1273;66089;-40
2024/04/15 00:11:48;;;;;;;;;;;;;;;12.62;100.00;97789.89;104348;1274;72623;-41
2024/04/15 00:14:15;;;;;;;;;;;;;;;12.62;100.00;97799.50;104419;1280;62951;-41
2024/04/15 00:16:42;;;;;;;;;;;;;;;12.63;100.00;97798.92;104394;1279;62942;-41
2024/04/15 00:19:10;;;;;;;;;;;;;;;12.64;100.00;97800.38;104186;1274;76116;-41
2024/04/15 00:21:37;;;;;;;;;;;;;;;12.66;100.00;97804.34;104072;1273;66110;-41
2024/04/15 00:24:05;;;;;;;;;;;;;;;12.69;100.00;97802.15;104033;1279;72501;-41
2024/04/15 00:26:32;;;;;;;;;;;;;;;12.73;100.00;97795.55;103948;1274;63397;-41
2024/04/15 00:28:59;;;;;;;;;;;;;;;12.77;100.00;97797.01;103961;1273;62945;-41
2024/04/15 00:31:26;;;;;;;;;;;;;;;12.76;100.00;97794.89;103838;1278;75078;-40
2024/04/15 00:33:54;;;;;;;;;;;;;;;12.76;100.00;97792.37;103854;1281;66182;-43
2024/04/15 00:36:21;;;;;;;;;;;;;;;12.76;100.00;97775.55;103962;1275;72442;-42
2024/04/15 00:38:48;;;;;;;;;;;;;;;12.75;100.00;97774.98;104054;1280;62970;-40
2024/04/15 00:41:15;;;;;;;;;;;;;;;12.76;100.00;97776.87;104097;1273;62901;-41
2024/04/15 00:43:42;;;;;;;;;;;;;;;12.74;100.00;97764.41;104004;1287;76336;-42
2024/04/15 00:46:09;;;;;;;;;;;;;;;12.72;100.00;97766.45;104021;1274;66221;-45
2024/04/15 00:48:36;;;;;;;;;;;;;;;12.70;100.00;97756.20;104364;1279;72505;-45
2024/04/15 00:51:03;;;;;;;;;;;;;;;12.63;100.00;97749.21;104440;1274;62855;-40
2024/04/15 00:53:30;;;;;;;;;;;;;;;12.58;100.00;97743.49;104423;1274;62991;-40
2024/04/15 00:55:58;;;;;;;;;;;;;;;12.55;100.00;97740.25;104378;1282;76158;-42
2024/04/15 00:58:25;;;;;;;;;;;;;;;12.54;100.00;97737.13;104376;1273;65371;-41
2024/04/15 01:00:52;;;;;;;;;;;;;;;12.54;100.00;97741.73;104018;1287;72578;-41
2024/04/15 01:03:20;;;;;;;;;;;;;;;12.52;100.00;97735.02;104393;1274;63317;-41
2024/04/15 01:05:47;;;;;;;;;;;;;;;12.47;100.00;97725.15;104301;1273;63152;-41
2024/04/15 01:08:14;;;;;;;;;;;;;;;12.44;100.00;97725.17;103898;1279;76200;-42
2024/04/15 01:10:41;;;;;;;;;;;;;;;12.40;100.00;97733.89;104379;1274;65786;-41
2024/04/15 01:13:25;;;;;;;;;;;;;;;12.33;100.00;97747.56;104281;1280;72745;-41
2024/04/15 01:15:56;;;;;;;;;;;;;;;12.27;100.00;97740.73;104121;1274;62974;-41
2024/04/15 01:18:23;;;;;;;;;;;;;;;12.20;100.00;97729.48;104184;1279;62924;-41
2024/04/15 01:20:51;;;;;;;;;;;;;;;12.14;100.00;97727.00;104328;1279;76124;-41
2024/04/15 01:23:20;;;;;;;;;;;;;;;12.09;100.00;97732.87;104385;1274;65287;-40
2024/04/15 01:25:47;;;;;;;;;;;;;;;12.07;100.00;97733.71;104281;1274;71527;-42
2024/04/15 01:28:17;;;;;;;;;;;;;;;12.05;100.00;97731.04;103901;1273;62804;-41
2024/04/15 01:30:44;;;;;;;;;;;;;;;12.02;100.00;97722.46;104289;1280;62996;-41
2024/04/15 01:33:12;;;;;;;;;;;;;;;11.98;100.00;97717.58;104359;1279;76234;-40
2024/04/15 01:35:39;;;;;;;;;;;;;;;11.93;100.00;97719.00;104402;1274;66295;-40
2024/04/15 01:38:06;;;;;;;;;;;;;;;11.88;100.00;97715.89;104420;1279;72390;-41
2024/04/15 01:40:32;;;;;;;;;;;;;;;11.84;100.00;97713.50;104410;1274;63035;-41
2024/04/15 01:42:59;;;;;;;;;;;;;;;11.82;100.00;97724.40;104324;1273;62926;-41
2024/04/15 01:45:26;;;;;;;;;;;;;;;11.78;100.00;97721.32;104219;1279;76145;-41
2024/04/15 01:47:53;;;;;;;;;;;;;;;11.79;100.00;97718.25;104184;1274;65449;-41
2024/04/15 01:50:22;;;;;;;;;;;;;;;11.80;100.00;97708.44;104381;1273;72500;-41
2024/04/15 01:52:49;;;;;;;;;;;;;;;11.82;100.00;97698.48;104239;1274;62982;-40
2024/04/15 01:55:16;;;;;;;;;;;;;;;11.84;100.00;97688.45;103863;1273;62896;-40
2024/04/15 01:57:43;;;;;;;;;;;;;;;11.84;100.00;97695.54;103852;1278;76327;-41
2024/04/15 02:00:10;;;;;;;;;;;;;;;11.83;100.00;97701.17;104112;1274;66046;-40
2024/04/15 02:02:37;;;;;;;;;;;;;;;11.83;100.00;97699.76;104178;1274;72514;-41
2024/04/15 02:05:07;;;;;;;;;;;;;;;11.81;100.00;97714.65;104342;1274;62986;-41
2024/04/15 02:07:36;;;;;;;;;;;;;;;11.80;100.00;97721.65;104414;1273;62876;-42
2024/04/15 02:10:03;;;;;;;;;;;;;;;11.80;100.00;97726.81;104157;1273;75105;-41
2024/04/15 02:12:31;;;;;;;;;;;;;;;11.81;100.00;97731.82;103954;1274;65269;-41
2024/04/15 02:14:58;;;;;;;;;;;;;;;11.86;100.00;97729.52;104336;1274;72471;-42
2024/04/15 02:17:25;;;;;;;;;;;;;;;11.90;100.00;97721.54;104264;1274;62846;-42
2024/04/15 02:19:52;;;;;;;;;;;;;;;11.93;100.00;97723.91;104089;1274;62917;-41
2024/04/15 02:22:19;;;;;;;;;;;;;;;11.97;100.00;97726.95;104430;1279;76151;-41
2024/04/15 02:24:46;;;;;;;;;;;;;;;12.00;100.00;97728.11;104354;1279;65970;-41
2024/04/15 02:27:13;;;;;;;;;;;;;;;12.03;100.00;97719.39;104385;1274;72634;-40
2024/04/15 02:29:40;;;;;;;;;;;;;;;12.06;100.00;97723.86;104022;1274;63582;-40
2024/04/15 05:15:34;;;;;;;9.60;6.00;;;;;;;11.61;100.00;97565.35;103526;1280;67658;-41
2024/04/15 05:18:01;;;;;;;11.70;7.50;;;;;;;11.64;100.00;97566.15;104809;1267;71393;-41
2024/04/15 05:20:28;;;;;;;9.00;6.90;;;;;;;11.69;100.00;97568.34;104785;1268;61770;-39
2024/04/15 05:22:54;;;;;;;14.40;7.40;;;;;;;11.74;100.00;97565.61;104834;1267;60546;-41
2024/04/15 05:25:21;;;;;;;11.10;7.60;;;;;;;11.80;100.00;97564.63;104789;1265;73371;-45
2024/04/15 05:27:48;;;;;;;12.70;7.90;;;;;;;11.89;100.00;97563.98;104811;1267;66191;-42
2024/04/15 05:30:14;;;;;;;10.40;6.60;;;;;;;11.99;100.00;97555.60;104740;1267;72590;-43
2024/04/15 05:32:41;;;;;;;8.00;5.30;;;;;;;12.10;100.00;97548.26;104743;1269;60880;-42
2024/04/15 05:35:08;;;;;;;7.90;4.60;;;;;;;12.19;100.00;97545.47;104868;1266;60469;-42
2024/04/15 05:37:34;;;;;;;12.30;4.80;;;;;;;12.27;100.00;97543.84;104705;1267;60441;-42
2024/04/15 05:40:01;;;;;;;6.30;3.80;;;;;;;12.35;100.00;97544.31;104825;1267;60571;-42
2024/04/15 05:42:27;;;;;;;10.10;4.30;;;;;;;12.44;100.00;97549.17;104758;1265;73324;-40
2024/04/15 05:44:54;;;;;;;8.70;4.10;;;;;;;12.51;100.00;97545.88;104629;1266;62692;-42
2024/04/15 05:47:20;;;;;;;8.10;3.80;;;;;;;12.53;100.00;97547.05;104544;1268;60898;-43
2024/04/15 05:49:47;;;;;;;7.90;3.50;;;;;;;12.56;100.00;97539.47;104678;1267;73865;-43
2024/04/15 05:52:14;;;;;;;7.20;3.40;;;;;;;12.60;100.00;97530.10;104706;1268;60565;-41
2024/04/15 05:54:40;;;;;;;7.10;4.00;;;;;;;12.60;100.00;97525.60;104875;1267;71583;-41
2024/04/15 05:57:07;;;;;;;9.60;4.30;;;;;;;12.59;100.00;97520.64;104629;1267;60919;-40
2024/04/15 05:59:33;;;;;;;6.40;3.30;;;;;;;12.62;100.00;97510.89;104686;1267;60556;-42
2024/04/15 06:02:00;;;;;;;5.60;3.50;;;;;;;12.71;100.00;97502.08;104692;1267;74689;-41
2024/04/15 06:04:28;;;;;;;9.90;4.20;;;;;;;12.81;100.00;97500.52;104775;1269;66243;-40
2024/04/15 06:06:54;;;;;;;4.70;3.60;;;;;;;12.90;100.00;97493.50;104739;1267;72892;-39
2024/04/15 06:09:24;;;;;;;9.10;3.40;;;;;;;12.97;100.00;97492.91;104851;1268;60670;-42
2024/04/15 06:11:52;;;;;;;6.10;3.50;;;;;;;12.99;100.00;97504.31;105152;1265;60476;-41
2024/04/15 06:14:21;;;;;;;7.90;3.40;;;;;;;12.96;100.00;97525.58;104846;1269;74831;-45
2024/04/15 06:16:49;;;;;;;8.60;3.70;;;;;;;12.94;100.00;97509.46;104783;1268;66034;-41
2024/04/15 06:19:16;;;;;;;7.90;3.70;;;;;;;12.93;100.00;97497.17;104918;1269;72880;-40
2024/04/15 06:21:42;;;;;;;5.30;3.20;;;;;;;12.92;100.00;97495.44;104572;1267;62262;-39
2024/04/15 06:24:09;;;;;;;7.20;4.00;;;;;;;12.94;100.00;97473.11;104764;1269;60555;-41
2024/04/15 06:26:37;;;;;;;8.80;4.00;;;;;;;12.99;100.00;97475.07;104989;1268;75073;-42
2024/04/15 06:29:03;;;;;;;9.00;3.60;;;;;;;13.01;100.00;97469.77;105171;1269;66067;-41
2024/04/15 06:31:32;;;;;;;5.80;3.50;;;;;;;13.01;100.00;97476.99;104706;1266;73422;-42
2024/04/15 06:34:02;;;;;;;5.30;3.60;;;;;;;13.00;100.00;97485.40;105148;1269;60617;-48
2024/04/15 06:36:28;;;;;;;6.70;3.70;;;;;;;13.00;100.00;97468.27;104773;1266;60499;-49
2024/04/15 06:38:55;;;;;;;6.30;4.40;;;;;;;12.97;100.00;97471.77;104636;1267;73788;-51
2024/04/15 06:41:22;;;;;;;8.90;5.00;;;;;;;12.94;100.00;97461.80;104627;1266;64903;-50
2024/04/15 06:43:48;;;;;;;7.00;4.80;;;;;;;12.94;100.00;97464.70;104574;1267;73337;-50
2024/04/15 06:46:17;;;;;;;9.00;4.40;;;;;;;12.94;100.00;97469.16;105409;1257;61114;-51
2024/04/15 06:48:44;;;;;;;7.40;4.30;;;;;;;12.95;100.00;97473.89;105294;1254;60967;-42
2024/04/15 06:51:10;;;;;;;13.70;4.30;;;;;;;12.98;100.00;97469.11;105448;1254;74392;-47
2024/04/15 06:53:37;;;;;;;13.00;3.80;;;;;;;12.97;100.00;97472.83;105429;1257;66186;-48
2024/04/15 06:56:04;;;;;;;9.00;3.90;;;;;;;12.99;100.00;97477.06;105453;1254;72892;-51
2024/04/15 06:58:32;;;;;;;10.50;3.50;;;;;;;13.05;100.00;97486.81;105461;1257;61793;-51
2024/04/15 07:00:59;;;;;;;6.10;2.80;;;;;;;13.11;100.00;97471.33;105427;1254;61103;-49
2024/04/15 07:03:26;;;;;;;4.50;2.90;;;;;;;13.14;99.60;97453.38;109181;1254;74439;-49
2024/04/15 07:05:53;;;;;;;4.70;2.60;;;;;;;13.18;98.82;97455.58;108116;1254;67298;-48
2024/04/15 07:08:19;;;;;;;5.90;2.50;;;;;;;13.21;97.09;97461.30;105306;1257;60472;-48
2024/04/15 07:10:46;;;;;;;6.10;2.90;;;;;;;13.24;96.49;97466.20;105222;1256;60558;-49
2024/04/15 07:13:12;;;;;;;8.50;2.70;;;;;;;13.29;95.94;97465.94;105566;1254;60546;-47
2024/04/15 07:15:39;;;;;;;4.50;2.30;;;;;;;13.33;95.03;97461.05;105706;1257;73750;-49
2024/04/15 07:18:06;;;;;;;7.40;2.80;;;;;;;13.41;95.12;97463.23;105431;1257;66028;-48
2024/04/15 07:20:37;;;;;;;4.40;2.30;;;;;;;13.49;94.75;97459.81;105546;1254;72599;-50
2024/04/15 07:23:04;;;;;;;8.40;2.40;;;;;;;13.55;94.66;97466.85;105500;1257;61568;-50
2024/04/15 07:25:30;;;;;;;4.80;2.20;;;;;;;13.60;93.04;97466.86;105757;1256;60523;-48
2024/04/15 07:27:57;;;;;;;4.00;2.40;;;;;;;13.58;92.10;97470.63;105336;1255;74768;-46
2024/04/15 07:30:24;;;;;;;6.30;2.00;;;;;;;13.63;91.65;97464.54;105441;1254;67099;-52
2024/04/15 07:32:52;;;;;;;6.80;2.10;;;;;;;13.73;90.88;97451.70;106168;1254;73494;-49
2024/04/15 07:35:21;;;;;;;11.10;2.80;;;;;;;13.81;90.47;97448.27;105444;1254;62007;-39
2024/04/15 07:37:50;;;;;;;10.00;2.10;;;;;;;13.88;90.20;97454.91;105562;1253;60437;-47
2024/04/15 07:46:15;;;;;;;3.50;1.80;;;;;;;14.12;84.48;97426.71;105401;1254;65356;-52
2024/04/15 07:48:41;;;;;;;5.30;1.80;;;;;;;14.09;82.68;97426.77;105415;1254;72757;-43
2024/04/15 07:51:08;;;;;;;5.70;2.20;;;;;;;14.08;82.41;97426.50;105433;1257;60537;-44
2024/04/15 07:53:34;;;;;;;6.90;2.70;;;;;;;14.05;84.16;97418.77;105457;1254;60464;-41
2024/04/15 07:56:01;;;;;;;11.80;3.60;;;;;;;14.02;85.46;97414.58;106140;1256;73746;-39
2024/04/15 07:58:30;;;;;;;7.30;3.20;;;;;;;13.98;86.57;97413.96;105592;1257;64070;-39
2024/04/15 08:00:57;;;;;;;8.70;3.50;;;;;;;13.94;87.37;97417.70;105631;1257;73418;-41
2024/04/15 08:03:24;;;;;;;10.90;4.20;;;;;;;13.86;87.54;97428.04;105402;1254;60715;-42
2024/04/15 08:05:50;;;;;;;11.50;4.10;;;;;;;13.84;88.78;97432.00;105472;1254;60427;-43
2024/04/15 08:08:17;;;;;;;6.60;3.20;;;;;;;13.84;89.82;97430.98;105352;1257;72875;-40
2024/04/15 08:10:43;;;;;;;9.40;3.90;;;;;;;13.80;90.94;97426.98;109358;1253;67262;-41
2024/04/15 08:13:10;;;;;;;7.60;3.90;;;;;;;13.74;92.83;97415.93;105964;1253;60619;-43
2024/04/15 08:15:37;;;;;;;11.00;4.70;;;;;;;13.68;94.49;97403.26;105601;1257;61656;-42
2024/04/15 08:18:03;;;;;;;6.30;4.90;;;;;;;13.64;95.48;97391.79;105457;1254;61419;-40
2024/04/15 08:20:30;;;;;;;8.70;5.20;;;;;;;13.63;96.49;97392.88;105491;1257;74697;-43
2024/04/15 08:22:56;;;;;;;11.40;7.70;;;;;;;13.65;97.71;97401.83;105497;1257;66369;-43
2024/04/15 08:25:23;;;;;;;12.70;5.00;;;;;;;13.69;98.68;97392.83;105756;1254;73224;-43
2024/04/15 08:27:51;;;;;;;9.10;4.80;;;;;;;13.75;99.68;97384.96;105376;1253;61256;-41
2024/04/15 08:30:19;;;;;;;10.90;5.00;;;;;;;13.80;100.00;97419.67;105368;1253;61308;-45
2024/04/15 08:32:50;;;;;;;10.60;4.50;;;;;;;13.82;100.00;97494.20;105532;1259;75482;-43
2024/04/15 08:35:18;;;;;;;12.40;4.40;;;;;;;13.79;100.00;97530.41;105537;1259;66378;-40
2024/04/15 08:37:45;;;;;;;8.30;4.10;;;;;;;13.75;100.00;97547.84;105374;1254;71645;-41
2024/04/15 08:40:12;;;;;;;15.00;5.20;;;;;;;13.69;100.00;97569.76;105482;1254;62613;-42
2024/04/15 08:42:43;;;;;;;12.60;6.60;;;;;;;13.63;100.00;97531.53;105618;1254;61264;-42
2024/04/15 08:45:10;;;;;;;11.90;4.40;;;;;;;13.61;100.00;97476.52;105483;1257;75602;-41
2024/04/15 08:47:36;;;;;;;12.90;5.00;;;;;;;13.60;100.00;97455.27;105126;1259;61345;-39
2024/04/15 08:50:04;;;;;;;10.60;4.50;;;;;;;13.65;100.00;97436.70;105249;1259;72800;-42
2024/04/15 08:52:37;;;;;;;14.80;5.00;;;;;;;13.70;100.00;97444.06;105646;1257;62778;-42
2024/04/15 08:55:04;;;;;;;15.30;5.10;;;;;;;13.75;100.00;97455.64;107765;1257;59553;-42
2024/04/15 08:57:34;;;;;;;7.50;4.80;;;;;;;13.76;100.00;97483.20;105668;1254;72733;-42
2024/04/15 09:00:01;;;;;;;9.50;4.70;;;;;;;13.69;100.00;97504.44;105300;1254;67230;-41
2024/04/15 09:02:28;;;;;;;11.10;4.90;;;;;;;13.60;100.00;97501.33;105601;1254;72867;-43
2024/04/15 09:04:59;;;;;;;11.10;5.10;;;;;;;13.48;100.00;97502.35;105426;1254;62373;-42
2024/04/15 09:08:05;;;;;;;7.20;4.30;;;;;;;13.40;100.00;97527.63;105424;1256;61491;-42
2024/04/15 09:10:34;;;;;;;10.10;4.60;;;;;;;13.31;100.00;97537.67;105562;1257;75371;-42
2024/04/15 09:13:01;;;;;;;8.60;5.00;;;;;;;13.25;100.00;97552.23;105386;1258;66119;-42
2024/04/15 09:15:27;;;;;;;9.30;4.00;;;;;;;13.21;100.00;97538.98;105272;1254;73089;-42
2024/04/15 09:17:54;;;;;;;9.30;4.50;;;;;;;13.13;100.00;97524.02;105289;1257;62552;-41
2024/04/15 09:20:21;;;;;;;10.50;3.90;;;;;;;13.08;100.00;97521.17;105482;1254;61260;-43
2024/04/15 09:23:08;;;;;;;9.70;3.70;;;;;;;13.08;100.00;97510.60;105441;1259;75380;-43
2024/04/15 09:25:35;;;;;;;10.00;3.80;;;;;;;13.10;100.00;97508.08;105026;1260;63900;-44
2024/04/15 09:28:04;;;;;;;9.10;3.30;;;;;;;13.12;100.00;97512.00;105365;1254;61336;-43
2024/04/15 09:30:31;;;;;;;9.30;3.60;;;;;;;13.10;100.00;97505.31;105539;1254;61163;-44
2024/04/15 09:32:59;;;;;;;8.40;3.10;;;;;;;13.09;100.00;97510.48;105342;1254;61333;-43
2024/04/15 09:35:26;;;;;;;7.40;3.40;;;;;;;13.05;100.00;97528.71;105687;1256;75570;-43
2024/04/15 09:37:55;;;;;;;7.60;4.40;;;;;;;13.01;100.00;97532.52;105458;1254;65717;-42
2024/04/15 09:40:25;;;;;;;8.40;4.40;;;;;;;12.96;100.00;97516.11;106237;1254;72265;-42
2024/04/15 09:42:54;;;;;;;8.70;3.70;;;;;;;12.94;100.00;97513.17;107793;1256;60674;-40
2024/04/15 09:45:21;;;;;;;7.40;3.10;;;;;;;12.95;100.00;97503.93;105592;1254;61311;-41
2024/04/15 09:47:50;;;;;;;7.10;3.40;;;;;;;12.98;100.00;97472.02;105504;1257;74502;-39
2024/04/15 09:50:20;;;;;;;7.00;3.90;;;;;;;12.98;100.00;97437.98;105444;1259;66320;-45
2024/04/15 09:52:52;;;;;;;11.80;4.00;;;;;;;12.96;100.00;97444.29;106352;1254;72633;-44
2024/04/15 09:55:26;;;;;;;6.00;3.20;;;;;;;12.97;100.00;97450.23;105311;1254;61598;-42
2024/04/15 09:57:54;;;;;;;5.20;3.10;;;;;;;12.98;100.00;97454.02;105386;1254;61298;-42
2024/04/15 10:00:21;;;;;;;8.20;3.20;;;;;;;12.96;100.00;97464.18;105103;1261;75596;-44
2024/04/15 10:02:56;;;;;;;7.90;3.10;;;;;;;12.93;100.00;97479.50;106505;1259;66680;-43
2024/04/15 10:05:26;;;;;;;7.90;3.10;;;;;;;12.88;100.00;97485.69;105559;1258;71368;-44
2024/04/15 10:07:54;;;;;;;5.10;3.20;;;;;;;12.84;100.00;97477.70;105613;1259;61232;-43
2024/04/15 10:10:21;;;;;;;5.30;2.80;;;;;;;12.84;100.00;97445.23;105628;1254;61733;-41
2024/04/15 10:12:51;;;;;;;5.40;2.50;;;;;;;12.85;100.00;97438.11;105295;1260;75313;-42
2024/04/15 10:15:19;;;;;;;5.50;2.20;;;;;;;12.88;99.42;97432.83;105762;1253;66127;-42
2024/04/15 10:18:08;;;;;;;7.50;2.60;;;;;;;12.98;98.50;97429.63;105469;1260;72307;-42
2024/04/15 10:20:36;;;;;;;4.90;2.30;;;;;;;13.17;98.42;97410.56;105608;1254;61908;-41
2024/04/15 10:23:04;;;;;;;10.80;2.50;;;;;;;13.39;97.34;97397.90;105470;1259;61224;-41
2024/04/15 10:25:34;;;;;;;6.90;2.40;;;;;;;13.61;96.65;97403.20;106181;1254;73270;-39
2024/04/15 10:28:01;;;;;;;6.50;2.60;;;;;;;13.84;95.89;97417.30;109083;1254;67255;-41
2024/04/15 10:30:29;;;;;;;3.30;2.60;;;;;;;13.99;95.09;97419.45;105895;1254;72109;-43
2024/04/15 10:33:04;;;;;;;5.50;2.50;;;;;;;14.08;94.13;97409.26;105549;1254;62920;-40
2024/04/15 10:35:32;;;;;;;4.10;2.60;;;;;;;14.13;93.10;97405.39;105896;1254;61320;-40
2024/04/15 10:37:59;;;;;;;5.50;2.80;;;;;;;14.20;91.46;97420.04;105496;1259;75448;-42
2024/04/15 10:40:32;;;;;;;3.80;2.60;;;;;;;14.18;89.41;97423.42;105461;1258;66234;-41
2024/04/15 10:42:59;;;;;;;6.70;2.80;;;;;;;14.11;89.68;97433.56;105449;1259;71972;-39
2024/04/15 10:45:26;;;;;;;6.00;3.10;;;;;;;14.04;89.62;97440.16;105494;1259;61228;-40
2024/04/15 10:47:53;;;;;;;5.30;2.80;;;;;;;13.97;90.30;97439.52;105559;1254;61160;-39
2024/04/15 10:50:20;;;;;;;6.30;2.90;;;;;;;13.92;90.71;97440.64;105504;1254;73480;-49
2024/04/15 10:52:48;;;;;;;5.90;2.80;;;;;;;13.85;89.75;97442.95;105379;1259;66552;-47
2024/04/15 10:55:18;;;;;;;4.00;2.60;;;;;;;13.66;89.26;97433.11;105329;1254;72929;-48
2024/04/15 10:57:46;;;;;;;9.20;3.80;;;;;;;13.51;90.51;97422.67;105257;1258;61340;-46
2024/04/15 11:00:14;;;;;;;6.10;2.60;;;;;;;13.41;90.37;97407.52;105557;1254;61320;-50
2024/04/15 11:02:41;;;;;;;9.80;3.20;;;;;;;13.32;90.51;97402.37;105487;1259;72189;-48
2024/04/15 11:05:10;;;;;;;5.50;2.90;;;;;;;13.26;90.73;97395.05;105731;1254;65207;-50
2024/04/15 11:07:44;;;;;;;4.50;2.20;;;;;;;13.20;91.40;97403.56;105419;1257;73548;-48
2024/04/15 11:10:11;;;;;;;5.90;2.60;;;;;;;13.12;91.31;97408.27;105721;1257;61167;-46
2024/04/15 11:12:38;;;;;;;10.40;2.90;;;;;;;13.00;91.38;97416.90;105452;1259;61233;-46
2024/04/15 11:15:12;;;;;;;7.70;3.00;;;;;;;12.90;92.02;97422.23;105410;1257;74942;-45
2024/04/15 11:17:48;;;;;;;7.90;2.60;;;;;;;12.80;92.53;97427.08;105569;1254;66171;-47
2024/04/15 11:20:15;;;;;;;6.20;2.70;;;;;;;12.69;93.06;97415.13;105463;1254;73609;-54
2024/04/15 11:22:43;;;;;;;5.50;3.10;;;;;;;12.57;93.38;97415.24;105413;1258;61712;-51
2024/04/15 11:25:10;;;;;;;9.50;4.30;;;;;;;12.45;93.69;97388.44;105316;1259;61177;-50
2024/04/15 11:27:37;;;;;;;10.70;5.20;;;;;;;12.36;94.76;97359.27;105445;1256;75114;-50
2024/04/15 11:30:05;;;;;;;15.60;7.60;;;;;;;12.33;95.39;97351.89;105478;1254;66529;-50
2024/04/15 11:32:31;;;;;;;8.60;5.00;;;;;;;12.38;95.79;97339.23;105654;1254;73300;-48
2024/04/15 11:34:59;;;;;;;13.00;7.40;;;;;;;12.45;95.60;97320.05;105829;1254;61853;-46
2024/04/15 11:37:25;;;;;;;11.00;7.00;;;;;;;12.50;95.92;97298.66;105410;1254;61266;-45
2024/04/15 11:39:53;;;;;;;6.80;4.70;;;;;;;12.54;95.87;97302.20;105883;1257;74616;-50
2024/04/15 11:42:26;;;;;;;7.00;4.10;;;;;;;12.51;95.03;97317.80;105674;1258;66262;-47
2024/04/15 11:44:52;;;;;;;7.40;4.10;;;;;;;12.51;94.89;97330.70;105496;1260;71469;-47
2024/04/15 11:47:19;;;;;;;7.90;3.80;;;;;;;12.57;95.32;97336.16;105356;1254;61272;-47
2024/04/15 11:49:47;;;;;;;9.00;4.00;;;;;;;12.72;95.75;97327.92;105742;1254;61379;-46
2024/04/15 11:52:16;;;;;;;15.70;9.70;;;;;;;12.96;96.06;97319.04;105652;1254;74306;-46
2024/04/15 11:54:45;;;;;;;15.30;8.10;;;;;;;13.19;94.71;97319.39;105400;1254;67160;-50
2024/04/15 11:57:11;;;;;;;9.40;6.00;;;;;;;13.31;93.02;97330.51;105707;1254;72631;-48
2024/04/15 11:59:38;;;;;;;10.30;6.10;;;;;;;13.38;92.01;97324.52;105469;1259;61400;-44
2024/04/15 12:02:05;;;;;;;8.60;5.20;;;;;;;13.35;90.37;97323.22;105128;1254;61295;-47
2024/04/15 12:04:32;;;;;;;8.00;4.70;;;;;;;13.28;89.51;97330.36;105569;1255;74624;-44
2024/04/15 12:07:00;;;;;;;9.30;4.10;;;;;;;13.17;87.90;97338.34;105279;1254;66888;-48
2024/04/15 12:09:29;;;;;;;6.60;3.40;;;;;;;13.00;86.50;97357.55;105387;1254;73630;-47
2024/04/15 12:11:55;;;;;;;5.70;2.50;;;;;;;12.82;86.11;97361.75;105539;1259;61279;-47
2024/04/15 12:14:23;;;;;;;5.70;2.60;;;;;;;12.66;85.70;97341.30;105447;1254;61250;-47
2024/04/15 12:16:49;;;;;;;6.50;2.90;;;;;;;12.50;86.30;97304.73;105411;1259;73695;-46
2024/04/15 12:19:16;;;;;;;6.00;3.00;;;;;;;12.42;86.06;97281.36;105433;1254;66919;-46
2024/04/15 12:21:43;;;;;;;5.90;2.60;;;;;;;12.39;86.31;97279.38;105456;1254;73624;-47
2024/04/15 12:24:09;;;;;;;6.60;2.60;;;;;;;12.37;86.55;97274.60;105467;1254;61247;-44
2024/04/15 12:26:36;;;;;;;7.00;2.80;;;;;;;12.35;86.34;97283.30;105630;1259;59880;-48
2024/04/15 12:29:03;;;;;;;5.20;2.60;;;;;;;12.36;86.65;97285.69;105557;1259;74483;-51
2024/04/15 12:31:30;;;;;;;6.70;2.50;;;;;;;12.39;87.02;97290.09;105241;1254;66103;-50
2024/04/15 12:33:56;;;;;;;6.50;2.90;;;;;;;12.38;86.84;97278.11;105872;1259;73063;-46
2024/04/15 12:36:23;;;;;;;6.10;2.80;;;;;;;12.38;86.82;97258.61;105306;1254;61237;-50
2024/04/15 12:38:51;;;;;;;5.90;2.90;;;;;;;12.39;86.93;97258.02;105228;1263;61147;-52
2024/04/15 12:41:19;;;;;;;9.20;2.50;;;;;;;12.36;86.30;97288.91;105475;1256;75655;-49
2024/04/15 12:43:48;;;;;;;8.20;2.90;;;;;;;12.30;85.88;97292.05;105250;1259;66123;-49
2024/04/15 12:46:17;;;;;;;5.00;2.50;;;;;;;12.25;86.03;97279.24;105298;1254;72525;-49
2024/04/15 12:48:44;;;;;;;6.70;2.70;;;;;;;12.20;86.06;97284.10;105512;1259;61220;-45
2024/04/15 12:51:13;;;;;;;6.50;2.90;;;;;;;12.16;85.96;97275.83;105415;1254;61825;-50
2024/04/15 12:53:40;;;;;;;9.60;3.00;;;;;;;12.10;85.66;97275.52;105568;1260;74547;-50
2024/04/15 12:56:06;;;;;;;11.00;3.50;;;;;;;12.05;85.89;97288.31;105780;1259;66235;-44
2024/04/15 12:58:33;;;;;;;7.10;3.20;;;;;;;11.99;86.48;97281.67;105614;1256;72663;-50
2024/04/15 13:01:00;;;;;;;6.30;2.80;;;;;;;11.90;86.72;97278.46;105782;1257;61124;-50
2024/04/15 13:03:30;;;;;;;6.80;3.20;;;;;;;11.82;86.53;97283.81;105357;1254;61288;-49
2024/04/15 13:05:56;;;;;;;7.10;3.20;;;;;;;11.74;86.46;97276.33;105544;1254;73442;-49
2024/04/15 13:08:23;;;;;;;7.10;3.50;;;;;;;11.66;86.21;97288.29;105586;1255;65554;-49
2024/04/15 13:10:50;;;;;;;4.10;2.90;;;;;;;11.59;86.83;97279.21;105683;1254;72584;-49
2024/04/15 13:13:16;;;;;;;6.90;3.20;;;;;;;11.53;87.29;97285.45;105640;1260;61263;-50
2024/04/15 13:15:43;;;;;;;7.60;2.80;;;;;;;11.48;88.32;97304.85;105440;1254;61339;-49
2024/04/15 13:18:10;;;;;;;7.00;2.50;;;;;;;11.44;89.27;97312.22;105590;1260;74383;-50
2024/04/15 13:20:36;;;;;;;4.80;2.20;;;;;;;11.41;89.87;97303.13;105470;1257;66121;-48
2024/04/15 13:23:03;;;;;;;5.70;2.20;;;;;;;11.38;89.00;97293.27;105456;1254;61374;-50
2024/04/15 13:25:30;;;;;;;6.80;2.40;;;;;;;11.32;86.48;97293.73;105689;1257;62922;-50
2024/04/15 13:28:00;;;;;;;5.70;2.20;;;;;;;11.26;86.02;97287.68;105480;1254;61253;-48
2024/04/15 13:30:27;;;;;;;5.10;1.70;;;;;;;11.21;85.45;97260.59;105687;1259;74621;-49
2024/04/15 13:32:54;;;;;;;6.60;1.70;;;;;;;11.16;84.03;97254.03;105558;1259;66162;-49
2024/04/15 13:35:20;;;;;;;3.00;1.40;;;;;;;11.11;83.50;97250.97;105642;1254;73593;-47
2024/04/15 13:37:48;;;;;;;4.20;2.20;;;;;;;11.06;83.32;97234.11;105628;1258;61319;-46
2024/04/15 13:40:15;;;;;;;4.50;2.10;;;;;;;10.98;84.21;97226.05;105682;1254;61358;-48
2024/04/15 13:42:42;;;;;;;6.70;2.50;;;;;;;10.93;84.54;97229.55;105583;1259;73581;-49
2024/04/15 13:45:09;;;;;;;7.80;2.80;;;;;;;10.87;84.45;97245.84;105587;1260;66788;-49
2024/04/15 13:47:35;;;;;;;4.50;2.40;;;;;;;10.80;84.90;97260.81;105553;1254;72335;-47
2024/04/15 13:50:03;;;;;;;8.60;2.80;;;;;;;10.70;85.27;97268.73;105580;1260;61230;-47
2024/04/15 13:52:30;;;;;;;5.50;2.40;;;;;;;10.62;85.68;97280.94;105645;1259;61212;-52
2024/04/15 13:54:58;;;;;;;4.30;1.80;;;;;;;10.58;85.93;97278.41;105716;1258;74570;-48
2024/04/15 13:57:25;;;;;;;6.50;2.50;;;;;;;10.58;86.54;97264.84;105501;1267;65361;-51
2024/04/15 13:59:51;;;;;;;6.40;2.40;;;;;;;10.53;87.40;97263.77;105464;1259;71887;-49
2024/04/15 14:02:18;;;;;;;8.20;2.50;;;;;;;10.47;88.05;97265.05;108079;1254;61346;-48
2024/04/15 14:04:47;;;;;;;7.90;2.00;;;;;;;10.42;89.06;97253.02;105619;1254;61244;-47
2024/04/15 14:07:13;;;;;;;5.70;2.30;;;;;;;10.40;89.47;97233.33;105669;1259;74285;-47
2024/04/15 14:09:40;;;;;;;8.90;2.30;;;;;;;10.37;88.74;97234.14;105805;1260;64593;-47
2024/04/15 14:12:08;;;;;;;7.50;4.90;;;;;;;10.35;89.28;97248.81;105689;1254;72715;-47
2024/04/15 14:14:34;;;;;;;9.70;6.60;;;;;;;10.29;90.25;97260.80;105591;1258;61333;-46
2024/04/15 14:17:06;;;;;;;11.40;8.10;;;;;;;10.18;91.10;97270.33;105743;1254;61327;-46
2024/04/15 14:19:33;;;;;;;9.90;6.70;;;;;;;9.98;91.47;97262.75;105539;1260;74480;-47
2024/04/15 14:22:00;;;;;;;12.30;5.70;;;;;;;9.86;91.93;97244.96;107626;1257;66442;-47
2024/04/15 14:24:27;;;;;;;9.50;6.10;;;;;;;9.83;92.61;97237.75;105733;1255;72771;-47
2024/04/15 14:26:53;;;;;;;11.00;5.60;;;;;;;9.87;93.01;97243.90;105807;1258;61333;-47